METAR AND TAF INFORMATION
METAR FOR KTEX
ADDS - METARS form results

(0603 UTC 23 May 2019)
Data provider http://aviationweather.gov/metar/data/
 
METAR text: KTEX 230555Z AUTO 17005KT 10SM SCT028 BKN055 OVC075 06/M01 A2993 RMK AO2
Conditions at: KTEX (TELLURIDE REGION, CO, US) observed 0555 UTC 23 May 2019
Temperature: 6.0°C (43°F)
Dewpoint: -1.0°C (30°F) [RH = 61%]
Pressure (altimeter): 29.93 inches Hg (1013.6 mb)
Winds: from the S (170 degrees) at 6 MPH (5 knots; 2.6 m/s)
Visibility: 10 or more miles (16+ km)
Ceiling: 5500 feet AGL
Clouds: scattered clouds at 2800 feet AGL
broken clouds at 5500 feet AGL
overcast cloud deck at 7500 feet AGL
Weather: automated observation with no human augmentation;
there may or may not be significant weather present at this time

METAR text: KTEX 230535Z AUTO 00000KT 10SM SCT065 SCT070 OVC100 06/M02 A2992 RMK AO2
Conditions at: KTEX (TELLURIDE REGION, CO, US) observed 0535 UTC 23 May 2019
Temperature: 6.0°C (43°F)
Dewpoint: -2.0°C (28°F) [RH = 56%]
Pressure (altimeter): 29.92 inches Hg (1013.3 mb)
Winds: calm
Visibility: 10 or more miles (16+ km)
Ceiling: 10000 feet AGL
Clouds: scattered clouds at 6500 feet AGL
scattered clouds at 7000 feet AGL
overcast cloud deck at 10000 feet AGL
Weather: automated observation with no human augmentation;
there may or may not be significant weather present at this time

METAR text: KTEX 230515Z AUTO 00000KT 10SM OVC100 05/M01 A2993 RMK AO2
Conditions at: KTEX (TELLURIDE REGION, CO, US) observed 0515 UTC 23 May 2019
Temperature: 5.0°C (41°F)
Dewpoint: -1.0°C (30°F) [RH = 65%]
Pressure (altimeter): 29.93 inches Hg (1013.6 mb)
Winds: calm
Visibility: 10 or more miles (16+ km)
Ceiling: 10000 feet AGL
Clouds: overcast cloud deck at 10000 feet AGL
Weather: automated observation with no human augmentation;
there may or may not be significant weather present at this time

Forecast for: KTEX (TELLURIDE REGION, CO, US)
Text: KTEX 230525Z 2306/2406 14005KT P6SM VCSH SCT050 BKN090
Forecast period: 0600 to 0900 UTC 23 May 2019
Forecast type: FROM: standard forecast or significant change
Winds: from the SE (140 degrees) at 6 MPH (5 knots; 2.6 m/s)
Visibility: 6 or more miles 10+ km)
Ceiling: 9000 feet AGL
Clouds: scattered clouds at 5000 feet AGL
broken clouds at 9000 feet AGL
Weather: VCSH  (showers in vicinity)
Text: FM230900 19008KT P6SM OVC100
Forecast period: 0900 to 1400 UTC 23 May 2019
Forecast type: FROM: standard forecast or significant change
Winds: from the S (190 degrees) at 9 MPH (8 knots; 4.1 m/s)
Visibility: 6 or more miles 10+ km)
Ceiling: 10000 feet AGL
Clouds: overcast cloud deck at 10000 feet AGL
Weather: no significant weather forecast for this period
Text: FM231400 16016KT P6SM VCSH SCT025 BKN080 WS020/17045KT
Forecast period: 1400 to 1800 UTC 23 May 2019
Forecast type: FROM: standard forecast or significant change
Winds: from the SSE (160 degrees) at 18 MPH (16 knots; 8.2 m/s)
Visibility: 6 or more miles 10+ km)
Ceiling: 8000 feet AGL
Clouds: scattered clouds at 2500 feet AGL
broken clouds at 8000 feet AGL
Wind Shear: at 2000 feet ( 610 m) AGL, from the S (170 degrees) at 52 MPH (45 knots; 23.4 m/s)
Weather: VCSH  (showers in vicinity)
Text: FM231800 17016G25KT P6SM -SHSN SCT015 BKN030
Forecast period: 1800 UTC 23 May 2019 to 0600 UTC 24 May 2019
Forecast type: FROM: standard forecast or significant change
Winds: from the S (170 degrees) at 18 MPH (16 knots; 8.2 m/s)
gusting to 29 MPH (25 knots; 12.9 m/s)
Visibility: 6 or more miles 10+ km)
Ceiling: 3000 feet AGL
Clouds: scattered clouds at 1500 feet AGL
broken clouds at 3000 feet AGL
Weather: -SHSN  (light snow showers)

 AIRPORT MAP

 RUNWAY INFORMATION
Runway 09 Runway length 6870 ft Runway width 100 ft
Runway elevation 9061 ft Runway displaced threshold 0 ft Runway heading 105
Runway 27 Runway length 6870 ft Runway width 100 ft
Runway elevation 9078 ft Runway displaced threshold 0 ft Runway heading 285

 AIRPORT FREQUENCIES
Type CNTR Name DENVER CNT Frequency 125.35 MHZ
Type FSS Name DENVER RDO Frequency 122.15 MHZ
Type UNIC Name CTAF/UNICO Frequency 123 MHZ

 AIRPORT NEAR NAVIGATION AIDS



Powered by Virtual Airlines Manager [v2.6.2]